<?xml version="1.0" encoding="UTF-8" standalone="no" ?>
<gpx xmlns="http://www.topografix.com/GPX/1/1" xmlns:xsi="http://www.w3.org/2001/XMLSchema-instance" xsi:schemaLocation="http://www.topografix.com/GPX/1/1 http://www.topografix.com/GPX/1/1/gpx.xsd" version="1.1" creator="VisuGPX - https://www.visugpx.com">
  <metadata>
    <name>Essai</name>
    <desc><![CDATA[Boulot via trajet]]></desc>
  </metadata>
  <trk>
    <name><![CDATA[2014-09-11 07:21]]></name>
    <desc><![CDATA[<h1>OruxMaps</h1><br /><hr align="center" width="480" style="height: 2px; width: 517px"/><h2>Nom: 2014-09-11 07:21</h2><br /><p>Temps de départ: 09/11/2014 07:21</p><p>Temps d'arrivée: 09/11/2014 07:27</p><p>Distance: 3,1 km (00:05)</p><p>Temps déplacement: 00:05</p><p>Vitesse moyenne: 31,9 km/h</p><p>Vitesse moyenne: 33,9 km/h</p><p>Vitess Max.: 74,2 km/h</p><p>Altitude minimale: 151 m</p><p>Altitude maximale: 167 m</p><p>Vitesse d'élévation: 946,2 m/h</p><p>Vitesse de descente: -1267,9 m/h</p><p>Gain Altitude: 38 m</p><p>Perte Altitude: -33 m</p><p>Temps d'élévation: 00:02</p><p>Temps de descente: 00:01</p><hr align="center" width="480" style="height: 2px; width: 517px"/>]]></desc>
    <trkseg>
      <trkpt lat="48.38065" lon="7.56956">
        <ele>151.74</ele>
        <time>2014-09-11T05:21:43Z</time>
      </trkpt>
      <trkpt lat="48.38047" lon="7.56944">
        <ele>155.48</ele>
        <time>2014-09-11T05:22:00Z</time>
      </trkpt>
      <trkpt lat="48.3803" lon="7.56928">
        <ele>155.45</ele>
        <time>2014-09-11T05:22:05Z</time>
      </trkpt>
      <trkpt lat="48.38012" lon="7.56939">
        <ele>158.05</ele>
        <time>2014-09-11T05:22:13Z</time>
      </trkpt>
      <trkpt lat="48.38" lon="7.56968">
        <ele>158.76</ele>
        <time>2014-09-11T05:22:16Z</time>
      </trkpt>
      <trkpt lat="48.37986" lon="7.5699">
        <ele>158.73</ele>
        <time>2014-09-11T05:22:19Z</time>
      </trkpt>
      <trkpt lat="48.37971" lon="7.57011">
        <ele>157.97</ele>
        <time>2014-09-11T05:22:22Z</time>
      </trkpt>
      <trkpt lat="48.37958" lon="7.5703">
        <ele>157.85</ele>
        <time>2014-09-11T05:22:26Z</time>
      </trkpt>
      <trkpt lat="48.3794" lon="7.57053">
        <ele>157.11</ele>
        <time>2014-09-11T05:22:29Z</time>
      </trkpt>
      <trkpt lat="48.37919" lon="7.57077">
        <ele>153.52</ele>
        <time>2014-09-11T05:22:32Z</time>
      </trkpt>
      <trkpt lat="48.37899" lon="7.57104">
        <ele>152.32</ele>
        <time>2014-09-11T05:22:35Z</time>
      </trkpt>
      <trkpt lat="48.37885" lon="7.57124">
        <ele>152.76</ele>
        <time>2014-09-11T05:22:37Z</time>
      </trkpt>
      <trkpt lat="48.37871" lon="7.57145">
        <ele>153.87</ele>
        <time>2014-09-11T05:22:39Z</time>
      </trkpt>
      <trkpt lat="48.37855" lon="7.57164">
        <ele>152.9</ele>
        <time>2014-09-11T05:22:41Z</time>
      </trkpt>
      <trkpt lat="48.3784" lon="7.57186">
        <ele>151.91</ele>
        <time>2014-09-11T05:22:43Z</time>
      </trkpt>
      <trkpt lat="48.37828" lon="7.57206">
        <ele>152.66</ele>
        <time>2014-09-11T05:22:45Z</time>
      </trkpt>
      <trkpt lat="48.37811" lon="7.5723">
        <ele>154.1</ele>
        <time>2014-09-11T05:22:47Z</time>
      </trkpt>
      <trkpt lat="48.37797" lon="7.5725">
        <ele>155.46</ele>
        <time>2014-09-11T05:22:49Z</time>
      </trkpt>
      <trkpt lat="48.37784" lon="7.57273">
        <ele>157.55</ele>
        <time>2014-09-11T05:22:51Z</time>
      </trkpt>
      <trkpt lat="48.37767" lon="7.57295">
        <ele>157.57</ele>
        <time>2014-09-11T05:22:53Z</time>
      </trkpt>
      <trkpt lat="48.3775" lon="7.57317">
        <ele>158.2</ele>
        <time>2014-09-11T05:22:56Z</time>
      </trkpt>
      <trkpt lat="48.37732" lon="7.57347">
        <ele>159.91</ele>
        <time>2014-09-11T05:22:59Z</time>
      </trkpt>
      <trkpt lat="48.37718" lon="7.57372">
        <ele>160.41</ele>
        <time>2014-09-11T05:23:01Z</time>
      </trkpt>
      <trkpt lat="48.37704" lon="7.57407">
        <ele>159.31</ele>
        <time>2014-09-11T05:23:04Z</time>
      </trkpt>
      <trkpt lat="48.37699" lon="7.57439">
        <ele>158.01</ele>
        <time>2014-09-11T05:23:06Z</time>
      </trkpt>
      <trkpt lat="48.37686" lon="7.5747">
        <ele>159.01</ele>
        <time>2014-09-11T05:23:09Z</time>
      </trkpt>
      <trkpt lat="48.37677" lon="7.57495">
        <ele>158.19</ele>
        <time>2014-09-11T05:23:11Z</time>
      </trkpt>
      <trkpt lat="48.37667" lon="7.57528">
        <ele>158.48</ele>
        <time>2014-09-11T05:23:13Z</time>
      </trkpt>
      <trkpt lat="48.37659" lon="7.5756">
        <ele>158.55</ele>
        <time>2014-09-11T05:23:15Z</time>
      </trkpt>
      <trkpt lat="48.37648" lon="7.57595">
        <ele>159.07</ele>
        <time>2014-09-11T05:23:17Z</time>
      </trkpt>
      <trkpt lat="48.37638" lon="7.5763">
        <ele>159.45</ele>
        <time>2014-09-11T05:23:19Z</time>
      </trkpt>
      <trkpt lat="48.37625" lon="7.57667">
        <ele>159.55</ele>
        <time>2014-09-11T05:23:21Z</time>
      </trkpt>
      <trkpt lat="48.37616" lon="7.57702">
        <ele>160.07</ele>
        <time>2014-09-11T05:23:23Z</time>
      </trkpt>
      <trkpt lat="48.37605" lon="7.57739">
        <ele>160.95</ele>
        <time>2014-09-11T05:23:25Z</time>
      </trkpt>
      <trkpt lat="48.37594" lon="7.57776">
        <ele>161.42</ele>
        <time>2014-09-11T05:23:27Z</time>
      </trkpt>
      <trkpt lat="48.37582" lon="7.57817">
        <ele>162.29</ele>
        <time>2014-09-11T05:23:29Z</time>
      </trkpt>
      <trkpt lat="48.3757" lon="7.57853">
        <ele>163.51</ele>
        <time>2014-09-11T05:23:31Z</time>
      </trkpt>
      <trkpt lat="48.37559" lon="7.57889">
        <ele>164.06</ele>
        <time>2014-09-11T05:23:33Z</time>
      </trkpt>
      <trkpt lat="48.37554" lon="7.5792">
        <ele>166.7</ele>
        <time>2014-09-11T05:23:35Z</time>
      </trkpt>
      <trkpt lat="48.37546" lon="7.57947">
        <ele>167.36</ele>
        <time>2014-09-11T05:23:37Z</time>
      </trkpt>
      <trkpt lat="48.37537" lon="7.57982">
        <ele>166.27</ele>
        <time>2014-09-11T05:23:39Z</time>
      </trkpt>
      <trkpt lat="48.37525" lon="7.58009">
        <ele>165.75</ele>
        <time>2014-09-11T05:23:41Z</time>
      </trkpt>
      <trkpt lat="48.37514" lon="7.58049">
        <ele>163.1</ele>
        <time>2014-09-11T05:23:44Z</time>
      </trkpt>
      <trkpt lat="48.37505" lon="7.58076">
        <ele>162.71</ele>
        <time>2014-09-11T05:23:46Z</time>
      </trkpt>
      <trkpt lat="48.37496" lon="7.58108">
        <ele>161.86</ele>
        <time>2014-09-11T05:23:48Z</time>
      </trkpt>
      <trkpt lat="48.37487" lon="7.58135">
        <ele>160.15</ele>
        <time>2014-09-11T05:23:50Z</time>
      </trkpt>
      <trkpt lat="48.37477" lon="7.58161">
        <ele>158.72</ele>
        <time>2014-09-11T05:23:52Z</time>
      </trkpt>
      <trkpt lat="48.37469" lon="7.58186">
        <ele>157.11</ele>
        <time>2014-09-11T05:23:54Z</time>
      </trkpt>
      <trkpt lat="48.3746" lon="7.58215">
        <ele>159.49</ele>
        <time>2014-09-11T05:23:58Z</time>
      </trkpt>
      <trkpt lat="48.37457" lon="7.58243">
        <ele>162.82</ele>
        <time>2014-09-11T05:24:01Z</time>
      </trkpt>
      <trkpt lat="48.37472" lon="7.58265">
        <ele>165.78</ele>
        <time>2014-09-11T05:24:05Z</time>
      </trkpt>
      <trkpt lat="48.37496" lon="7.58271">
        <ele>166.13</ele>
        <time>2014-09-11T05:24:07Z</time>
      </trkpt>
      <trkpt lat="48.37516" lon="7.58282">
        <ele>165.22</ele>
        <time>2014-09-11T05:24:09Z</time>
      </trkpt>
      <trkpt lat="48.37542" lon="7.58292">
        <ele>165.24</ele>
        <time>2014-09-11T05:24:11Z</time>
      </trkpt>
      <trkpt lat="48.37565" lon="7.58308">
        <ele>165.49</ele>
        <time>2014-09-11T05:24:13Z</time>
      </trkpt>
      <trkpt lat="48.37589" lon="7.5833">
        <ele>164.81</ele>
        <time>2014-09-11T05:24:15Z</time>
      </trkpt>
      <trkpt lat="48.37611" lon="7.58347">
        <ele>163.89</ele>
        <time>2014-09-11T05:24:17Z</time>
      </trkpt>
      <trkpt lat="48.37632" lon="7.58372">
        <ele>163.9</ele>
        <time>2014-09-11T05:24:19Z</time>
      </trkpt>
      <trkpt lat="48.37658" lon="7.58394">
        <ele>164.66</ele>
        <time>2014-09-11T05:24:21Z</time>
      </trkpt>
      <trkpt lat="48.37679" lon="7.58408">
        <ele>165.35</ele>
        <time>2014-09-11T05:24:23Z</time>
      </trkpt>
      <trkpt lat="48.37695" lon="7.58425">
        <ele>166.02</ele>
        <time>2014-09-11T05:24:25Z</time>
      </trkpt>
      <trkpt lat="48.37707" lon="7.58451">
        <ele>164.76</ele>
        <time>2014-09-11T05:24:28Z</time>
      </trkpt>
      <trkpt lat="48.37706" lon="7.58479">
        <ele>163.62</ele>
        <time>2014-09-11T05:24:30Z</time>
      </trkpt>
      <trkpt lat="48.37695" lon="7.5851">
        <ele>161.84</ele>
        <time>2014-09-11T05:24:32Z</time>
      </trkpt>
      <trkpt lat="48.37686" lon="7.58537">
        <ele>159.64</ele>
        <time>2014-09-11T05:24:34Z</time>
      </trkpt>
      <trkpt lat="48.37671" lon="7.58566">
        <ele>159.34</ele>
        <time>2014-09-11T05:24:36Z</time>
      </trkpt>
      <trkpt lat="48.37656" lon="7.586">
        <ele>160.52</ele>
        <time>2014-09-11T05:24:38Z</time>
      </trkpt>
      <trkpt lat="48.37642" lon="7.58618">
        <ele>160.31</ele>
        <time>2014-09-11T05:24:40Z</time>
      </trkpt>
      <trkpt lat="48.37634" lon="7.58643">
        <ele>159.95</ele>
        <time>2014-09-11T05:24:41Z</time>
      </trkpt>
      <trkpt lat="48.37618" lon="7.5868">
        <ele>159.17</ele>
        <time>2014-09-11T05:24:43Z</time>
      </trkpt>
      <trkpt lat="48.37602" lon="7.58707">
        <ele>159.48</ele>
        <time>2014-09-11T05:24:45Z</time>
      </trkpt>
      <trkpt lat="48.37586" lon="7.58735">
        <ele>160.55</ele>
        <time>2014-09-11T05:24:47Z</time>
      </trkpt>
      <trkpt lat="48.37575" lon="7.58758">
        <ele>160.32</ele>
        <time>2014-09-11T05:24:49Z</time>
      </trkpt>
      <trkpt lat="48.37561" lon="7.58778">
        <ele>160.01</ele>
        <time>2014-09-11T05:24:51Z</time>
      </trkpt>
      <trkpt lat="48.37551" lon="7.58808">
        <ele>161.19</ele>
        <time>2014-09-11T05:24:53Z</time>
      </trkpt>
      <trkpt lat="48.37532" lon="7.58826">
        <ele>160.9</ele>
        <time>2014-09-11T05:24:56Z</time>
      </trkpt>
      <trkpt lat="48.37513" lon="7.58842">
        <ele>159.64</ele>
        <time>2014-09-11T05:25:04Z</time>
      </trkpt>
      <trkpt lat="48.37493" lon="7.5885">
        <ele>160.52</ele>
        <time>2014-09-11T05:25:08Z</time>
      </trkpt>
      <trkpt lat="48.37469" lon="7.58838">
        <ele>161.07</ele>
        <time>2014-09-11T05:25:11Z</time>
      </trkpt>
      <trkpt lat="48.37447" lon="7.58816">
        <ele>160.14</ele>
        <time>2014-09-11T05:25:14Z</time>
      </trkpt>
      <trkpt lat="48.37427" lon="7.58801">
        <ele>159.72</ele>
        <time>2014-09-11T05:25:16Z</time>
      </trkpt>
      <trkpt lat="48.37406" lon="7.58788">
        <ele>158.86</ele>
        <time>2014-09-11T05:25:18Z</time>
      </trkpt>
      <trkpt lat="48.37389" lon="7.58772">
        <ele>157.9</ele>
        <time>2014-09-11T05:25:20Z</time>
      </trkpt>
      <trkpt lat="48.3737" lon="7.58759">
        <ele>158.66</ele>
        <time>2014-09-11T05:25:22Z</time>
      </trkpt>
      <trkpt lat="48.37345" lon="7.58746">
        <ele>158.6</ele>
        <time>2014-09-11T05:25:24Z</time>
      </trkpt>
      <trkpt lat="48.37327" lon="7.58727">
        <ele>156.58</ele>
        <time>2014-09-11T05:25:26Z</time>
      </trkpt>
      <trkpt lat="48.37312" lon="7.58711">
        <ele>156.08</ele>
        <time>2014-09-11T05:25:28Z</time>
      </trkpt>
      <trkpt lat="48.37294" lon="7.58702">
        <ele>155.7</ele>
        <time>2014-09-11T05:25:30Z</time>
      </trkpt>
      <trkpt lat="48.37276" lon="7.58683">
        <ele>156.02</ele>
        <time>2014-09-11T05:25:34Z</time>
      </trkpt>
      <trkpt lat="48.37295" lon="7.58648">
        <ele>155.51</ele>
        <time>2014-09-11T05:25:37Z</time>
      </trkpt>
      <trkpt lat="48.37307" lon="7.58627">
        <ele>154.56</ele>
        <time>2014-09-11T05:25:39Z</time>
      </trkpt>
      <trkpt lat="48.3732" lon="7.58594">
        <ele>152.33</ele>
        <time>2014-09-11T05:25:42Z</time>
      </trkpt>
      <trkpt lat="48.37339" lon="7.58571">
        <ele>153.8</ele>
        <time>2014-09-11T05:25:45Z</time>
      </trkpt>
      <trkpt lat="48.37347" lon="7.5854">
        <ele>153.63</ele>
        <time>2014-09-11T05:25:47Z</time>
      </trkpt>
      <trkpt lat="48.37363" lon="7.58511">
        <ele>154.71</ele>
        <time>2014-09-11T05:25:50Z</time>
      </trkpt>
      <trkpt lat="48.37368" lon="7.58484">
        <ele>153.86</ele>
        <time>2014-09-11T05:25:52Z</time>
      </trkpt>
      <trkpt lat="48.37377" lon="7.58455">
        <ele>154.53</ele>
        <time>2014-09-11T05:25:56Z</time>
      </trkpt>
      <trkpt lat="48.37366" lon="7.58433">
        <ele>153.61</ele>
        <time>2014-09-11T05:26:01Z</time>
      </trkpt>
      <trkpt lat="48.37345" lon="7.58426">
        <ele>157.88</ele>
        <time>2014-09-11T05:26:07Z</time>
      </trkpt>
      <trkpt lat="48.37324" lon="7.58426">
        <ele>160.12</ele>
        <time>2014-09-11T05:26:10Z</time>
      </trkpt>
      <trkpt lat="48.37309" lon="7.58403">
        <ele>158.11</ele>
        <time>2014-09-11T05:26:14Z</time>
      </trkpt>
      <trkpt lat="48.37289" lon="7.58383">
        <ele>157.17</ele>
        <time>2014-09-11T05:26:18Z</time>
      </trkpt>
      <trkpt lat="48.37267" lon="7.5836">
        <ele>156.78</ele>
        <time>2014-09-11T05:26:21Z</time>
      </trkpt>
      <trkpt lat="48.37248" lon="7.58351">
        <ele>155.63</ele>
        <time>2014-09-11T05:26:23Z</time>
      </trkpt>
      <trkpt lat="48.37227" lon="7.58339">
        <ele>156.46</ele>
        <time>2014-09-11T05:26:26Z</time>
      </trkpt>
      <trkpt lat="48.37205" lon="7.58333">
        <ele>155.8</ele>
        <time>2014-09-11T05:26:28Z</time>
      </trkpt>
      <trkpt lat="48.37187" lon="7.58315">
        <ele>155.98</ele>
        <time>2014-09-11T05:26:31Z</time>
      </trkpt>
      <trkpt lat="48.37161" lon="7.58308">
        <ele>156.63</ele>
        <time>2014-09-11T05:26:34Z</time>
      </trkpt>
      <trkpt lat="48.3714" lon="7.58285">
        <ele>157.71</ele>
        <time>2014-09-11T05:26:37Z</time>
      </trkpt>
      <trkpt lat="48.37124" lon="7.58274">
        <ele>155.36</ele>
        <time>2014-09-11T05:26:39Z</time>
      </trkpt>
      <trkpt lat="48.37111" lon="7.58253">
        <ele>153.8</ele>
        <time>2014-09-11T05:26:42Z</time>
      </trkpt>
      <trkpt lat="48.37092" lon="7.58247">
        <ele>154.73</ele>
        <time>2014-09-11T05:26:45Z</time>
      </trkpt>
      <trkpt lat="48.37074" lon="7.58235">
        <ele>154.87</ele>
        <time>2014-09-11T05:26:47Z</time>
      </trkpt>
      <trkpt lat="48.37053" lon="7.58227">
        <ele>154.9</ele>
        <time>2014-09-11T05:26:49Z</time>
      </trkpt>
      <trkpt lat="48.37031" lon="7.58217">
        <ele>154.66</ele>
        <time>2014-09-11T05:26:51Z</time>
      </trkpt>
      <trkpt lat="48.37011" lon="7.58205">
        <ele>154.85</ele>
        <time>2014-09-11T05:26:53Z</time>
      </trkpt>
      <trkpt lat="48.36995" lon="7.58194">
        <ele>154.65</ele>
        <time>2014-09-11T05:26:55Z</time>
      </trkpt>
      <trkpt lat="48.36975" lon="7.58176">
        <ele>153.09</ele>
        <time>2014-09-11T05:26:58Z</time>
      </trkpt>
      <trkpt lat="48.36964" lon="7.5815">
        <ele>151.67</ele>
        <time>2014-09-11T05:27:02Z</time>
      </trkpt>
      <trkpt lat="48.36962" lon="7.58122">
        <ele>152.21</ele>
        <time>2014-09-11T05:27:07Z</time>
      </trkpt>
      <trkpt lat="48.36958" lon="7.5809">
        <ele>156.37</ele>
        <time>2014-09-11T05:27:13Z</time>
      </trkpt>
      <trkpt lat="48.36971" lon="7.58062">
        <ele>155.75</ele>
        <time>2014-09-11T05:27:17Z</time>
      </trkpt>
      <trkpt lat="48.36975" lon="7.58034">
        <ele>155.38</ele>
        <time>2014-09-11T05:27:23Z</time>
      </trkpt>
      <trkpt lat="48.36953" lon="7.5804">
        <ele>153.54</ele>
        <time>2014-09-11T05:27:28Z</time>
      </trkpt>
      <trkpt lat="48.36934" lon="7.58036">
        <ele>154.48</ele>
        <time>2014-09-11T05:27:33Z</time>
      </trkpt>
    </trkseg>
  </trk>
</gpx>